Sun Valley, Arizona
Current Conditions -  °F | °C
As of 4:56 AM on Thursday 30 Oct 2014 (Local Time) from KINW Reporting Station
Clear Clear  
Wind Chill: 33°   Ceiling: Unl
Heat Index: 33°   Visibility: 10mi
Dew Point: 24°   Wind: 0mph
Humidity: 70%   Direction: NA
Pressure: 30.28"   Gusts: NA
Location:  34.9°N, 110.16°W
Report Text: KINW 301156Z AUTO 00000KT 10SM CLR 01/M04 A3028 RMK AO2 SLP225 T00061044 10089 20000 53002
Loading
Personal Weather Stations






























Interactive Weather Map
Tropical Storm Tracking
New forecast layout! Learn more

10-Day Weather Forecast

Advertisements
Track Severe Weather on mobile